createdAt,value
2019-05-19T00:01:23.994Z,16.07
2019-05-19T00:03:59.892Z,16.59
2019-05-19T00:06:34.587Z,16.88
2019-05-19T00:09:06.416Z,16.85
2019-05-19T00:11:41.244Z,16.52
2019-05-19T00:14:15.078Z,16.55
2019-05-19T00:16:48.253Z,16.72
2019-05-19T00:19:26.898Z,16.83
2019-05-19T00:21:59.086Z,16.38
2019-05-19T00:24:32.208Z,15.26
2019-05-19T00:27:05.612Z,15.71
2019-05-19T00:29:38.144Z,15.59
2019-05-19T00:32:09.350Z,15.50
2019-05-19T00:34:41.126Z,15.32
2019-05-19T00:37:17.640Z,15.22
2019-05-19T00:39:49.157Z,14.65
2019-05-19T00:42:21.654Z,13.99
2019-05-19T00:44:54.237Z,13.58
2019-05-19T00:47:27.493Z,13.37
2019-05-19T00:50:01.880Z,13.25
2019-05-19T00:52:44.315Z,13.21
2019-05-19T00:55:18.021Z,13.18
2019-05-19T00:57:49.622Z,13.20
2019-05-19T01:00:22.358Z,13.41
2019-05-19T01:02:56.950Z,14.20
2019-05-19T01:05:30.185Z,14.54
2019-05-19T01:08:02.218Z,14.70
2019-05-19T01:10:37.954Z,14.94
2019-05-19T01:13:14.002Z,15.07
2019-05-19T01:15:47.075Z,14.77
2019-05-19T01:18:19.878Z,14.74
2019-05-19T01:20:51.793Z,14.88
2019-05-19T01:23:24.293Z,15.41
2019-05-19T01:25:58.324Z,15.77
2019-05-19T01:28:30.561Z,16.03
2019-05-19T01:31:03.523Z,16.04
2019-05-19T01:33:38.941Z,15.94
2019-05-19T01:36:14.725Z,15.95
2019-05-19T01:38:49.168Z,16.21
2019-05-19T01:41:22.316Z,16.48
2019-05-19T01:43:56.453Z,16.57
2019-05-19T01:46:31.802Z,16.53
2019-05-19T01:49:05.859Z,16.36
2019-05-19T01:51:38.486Z,16.23
2019-05-19T01:54:11.684Z,16.18
2019-05-19T01:56:44.796Z,16.21
2019-05-19T01:59:17.474Z,15.98
2019-05-19T02:01:50.807Z,15.06
2019-05-19T02:04:24.891Z,14.94
2019-05-19T02:06:58.051Z,14.52
2019-05-19T02:09:30.774Z,14.22
2019-05-19T02:12:04.265Z,13.92
2019-05-19T02:14:38.560Z,14.01
2019-05-19T02:17:10.579Z,13.81
2019-05-19T02:19:42.770Z,14.22
2019-05-19T02:22:15.376Z,15.01
2019-05-19T02:24:47.545Z,15.45
2019-05-19T02:27:21.082Z,15.65
2019-05-19T02:29:54.898Z,15.72
2019-05-19T02:32:26.554Z,15.87
2019-05-19T02:35:00.893Z,16.10
2019-05-19T02:37:43.968Z,16.25
2019-05-19T02:40:18.322Z,16.37
2019-05-19T02:42:54.184Z,16.46
2019-05-19T02:45:28.403Z,15.32
2019-05-19T02:48:04.721Z,14.99
2019-05-19T02:50:51.825Z,15.07
2019-05-19T02:53:20.029Z,15.57
2019-05-19T02:55:53.799Z,14.96
2019-05-19T02:58:27.002Z,15.11
2019-05-19T03:01:00.146Z,14.59
2019-05-19T03:03:33.366Z,14.18
2019-05-19T03:06:05.288Z,14.04
2019-05-19T03:08:39.969Z,13.73
2019-05-19T03:11:13.227Z,13.52
2019-05-19T03:13:46.136Z,13.45
2019-05-19T03:16:17.885Z,13.55
2019-05-19T03:18:51.617Z,13.55
2019-05-19T03:21:25.686Z,13.44
2019-05-19T03:23:56.990Z,13.24
2019-05-19T03:26:29.894Z,13.24
2019-05-19T03:29:02.961Z,13.51
2019-05-19T03:31:41.708Z,13.68
2019-05-19T03:34:16.668Z,13.73
2019-05-19T03:36:49.016Z,13.80
2019-05-19T03:39:23.063Z,13.41
2019-05-19T03:41:57.651Z,13.52
2019-05-19T03:44:29.258Z,13.84
2019-05-19T03:47:03.388Z,13.64
2019-05-19T03:49:34.969Z,13.48
2019-05-19T03:52:06.201Z,13.31
2019-05-19T03:54:39.873Z,13.20
2019-05-19T03:57:11.882Z,13.77
2019-05-19T03:59:44.755Z,13.63
2019-05-19T04:02:16.940Z,14.01
2019-05-19T04:04:49.938Z,14.06
2019-05-19T04:07:23.867Z,14.18
2019-05-19T04:09:55.101Z,13.91
2019-05-19T04:12:26.324Z,13.71
2019-05-19T04:15:00.005Z,13.72
2019-05-19T04:17:45.264Z,13.94
2019-05-19T04:20:18.661Z,12.03
2019-05-19T04:22:51.054Z,14.16
2019-05-19T04:25:27.301Z,14.60
2019-05-19T04:28:01.076Z,14.01
2019-05-19T04:30:35.615Z,14.76
2019-05-19T04:33:09.067Z,14.76
2019-05-19T04:35:41.359Z,14.84
2019-05-19T04:38:17.210Z,15.16
2019-05-19T04:40:49.331Z,15.47
2019-05-19T04:43:21.415Z,15.84
2019-05-19T04:45:56.163Z,15.67
2019-05-19T04:48:32.062Z,15.55
2019-05-19T04:51:04.618Z,15.23
2019-05-19T04:53:36.336Z,15.31
2019-05-19T04:56:10.909Z,15.44
2019-05-19T04:58:42.553Z,15.70
2019-05-19T05:01:18.274Z,15.84
2019-05-19T05:03:52.907Z,16.23
2019-05-19T05:06:24.673Z,16.04
2019-05-19T05:08:58.450Z,16.06
2019-05-19T05:11:30.594Z,15.13
2019-05-19T05:14:05.706Z,15.45
2019-05-19T05:16:38.336Z,15.74
2019-05-19T05:19:15.032Z,16.20
2019-05-19T05:21:48.923Z,16.74
2019-05-19T05:24:21.516Z,15.91
2019-05-19T05:26:54.455Z,16.28
2019-05-19T05:29:27.520Z,16.44
2019-05-19T05:32:02.513Z,16.60
2019-05-19T05:34:36.932Z,15.98
2019-05-19T05:37:10.289Z,16.38
2019-05-19T05:39:42.181Z,17.21
2019-05-19T05:42:15.703Z,17.74
2019-05-19T05:44:49.539Z,16.74
2019-05-19T05:47:23.290Z,17.15
2019-05-19T05:49:57.512Z,17.65
2019-05-19T05:52:38.667Z,17.76
2019-05-19T05:55:17.036Z,16.38
2019-05-19T05:57:49.337Z,16.89
2019-05-19T06:00:23.721Z,16.92
2019-05-19T06:02:56.433Z,16.99
2019-05-19T06:05:29.698Z,17.42
2019-05-19T06:08:02.596Z,17.47
2019-05-19T06:10:35.058Z,17.72
2019-05-19T06:13:06.842Z,17.45
2019-05-19T06:15:39.719Z,17.46
2019-05-19T06:18:13.598Z,17.78
2019-05-19T06:20:46.155Z,17.57
2019-05-19T06:23:18.674Z,17.68
2019-05-19T06:25:51.822Z,17.42
2019-05-19T06:28:25.109Z,17.74
2019-05-19T06:30:56.858Z,17.60
2019-05-19T06:33:31.545Z,17.33
2019-05-19T06:36:07.502Z,18.00
2019-05-19T06:38:38.936Z,18.09
2019-05-19T06:41:15.135Z,17.73
2019-05-19T06:43:48.162Z,17.99
2019-05-19T06:46:22.710Z,18.53
2019-05-19T06:48:57.040Z,18.59
2019-05-19T06:51:33.276Z,18.46
2019-05-19T06:54:05.967Z,17.96
2019-05-19T06:56:38.830Z,18.18
2019-05-19T06:59:11.914Z,18.58
2019-05-19T07:01:45.056Z,18.71
2019-05-19T07:04:18.176Z,18.82
2019-05-19T07:06:51.345Z,19.20
2019-05-19T07:09:25.697Z,19.31
2019-05-19T07:12:01.762Z,19.32
2019-05-19T07:14:33.550Z,19.45
2019-05-19T07:17:05.914Z,19.19
2019-05-19T07:19:39.953Z,19.24
2019-05-19T07:22:12.022Z,19.56
2019-05-19T07:24:45.168Z,19.79
2019-05-19T07:27:19.894Z,19.98
2019-05-19T07:29:53.173Z,19.45
2019-05-19T07:32:28.860Z,19.80
2019-05-19T07:35:03.266Z,20.14
2019-05-19T07:37:49.621Z,20.50
2019-05-19T07:40:21.061Z,20.87
2019-05-19T07:42:54.053Z,20.88
2019-05-19T07:45:27.010Z,20.82
2019-05-19T07:47:59.896Z,20.78
2019-05-19T07:50:38.122Z,20.68
2019-05-19T07:53:13.901Z,20.75
2019-05-19T07:55:48.074Z,21.06
2019-05-19T07:58:21.957Z,20.82
2019-05-19T08:00:55.151Z,20.95
2019-05-19T08:03:27.183Z,21.29
2019-05-19T08:06:01.081Z,21.58
2019-05-19T08:08:33.358Z,21.33
2019-05-19T08:11:06.794Z,21.63
2019-05-19T08:13:41.197Z,20.69
2019-05-19T08:16:15.557Z,20.66
2019-05-19T08:18:49.858Z,21.07
2019-05-19T08:21:21.347Z,21.62
2019-05-19T08:24:00.262Z,21.54
2019-05-19T08:26:29.615Z,21.87
2019-05-19T08:29:07.923Z,21.14
2019-05-19T08:31:42.152Z,21.30
2019-05-19T08:34:16.566Z,21.30
2019-05-19T08:36:48.598Z,21.16
2019-05-19T08:39:23.226Z,21.19
2019-05-19T08:41:56.554Z,21.43
2019-05-19T08:44:29.481Z,20.82
2019-05-19T08:47:03.374Z,20.44
2019-05-19T08:49:37.482Z,20.87
2019-05-19T08:52:11.343Z,21.00
2019-05-19T08:54:44.800Z,21.15
2019-05-19T08:57:18.537Z,21.63
2019-05-19T08:59:52.918Z,21.44
2019-05-19T09:02:26.427Z,21.09
2019-05-19T09:05:14.025Z,21.12
2019-05-19T09:07:48.749Z,21.33
2019-05-19T09:10:21.522Z,21.18
2019-05-19T09:12:56.637Z,21.07
2019-05-19T09:15:30.644Z,20.59
2019-05-19T09:18:09.859Z,20.84
2019-05-19T09:20:46.012Z,21.21
2019-05-19T09:23:20.067Z,21.84
2019-05-19T09:25:53.089Z,21.66
2019-05-19T09:28:25.668Z,21.78
2019-05-19T09:30:58.660Z,20.52
2019-05-19T09:33:30.817Z,21.13
2019-05-19T09:36:03.647Z,20.92
2019-05-19T09:38:36.721Z,20.42
2019-05-19T09:41:10.407Z,19.96
2019-05-19T09:43:48.149Z,20.20
2019-05-19T09:46:21.894Z,20.34
2019-05-19T09:49:13.569Z,20.58
2019-05-19T09:51:46.127Z,20.82
2019-05-19T09:54:20.126Z,21.05
2019-05-19T09:56:52.421Z,20.91
2019-05-19T09:59:24.812Z,20.20
2019-05-19T10:01:58.535Z,20.98
2019-05-19T10:04:30.334Z,21.35
2019-05-19T10:07:05.622Z,21.17
2019-05-19T10:10:17.304Z,20.95
2019-05-19T10:12:50.513Z,21.10
2019-05-19T10:15:21.831Z,20.76
2019-05-19T10:17:54.873Z,20.89
2019-05-19T10:20:29.673Z,20.95
2019-05-19T10:23:02.054Z,21.00
2019-05-19T10:25:39.296Z,21.00
2019-05-19T10:28:47.068Z,20.93
2019-05-19T10:31:19.797Z,20.90
2019-05-19T10:33:55.233Z,20.75
2019-05-19T10:36:29.660Z,21.76
2019-05-19T10:39:05.919Z,21.47
2019-05-19T10:41:40.399Z,21.33
2019-05-19T10:44:12.920Z,21.10
2019-05-19T10:46:47.045Z,21.15
2019-05-19T10:49:21.019Z,21.42
2019-05-19T10:51:53.126Z,21.00
2019-05-19T10:54:25.286Z,20.62
2019-05-19T10:56:59.957Z,21.26
2019-05-19T10:59:33.248Z,21.69
2019-05-19T11:02:05.186Z,22.19
2019-05-19T11:04:40.677Z,22.33
2019-05-19T11:07:12.991Z,21.92
2019-05-19T11:09:48.512Z,22.10
2019-05-19T11:12:21.921Z,21.34
2019-05-19T11:14:55.838Z,21.45
2019-05-19T11:17:29.057Z,19.99
2019-05-19T11:20:02.172Z,20.88
2019-05-19T11:22:44.528Z,21.61
2019-05-19T11:25:31.584Z,22.19
2019-05-19T11:27:53.606Z,22.13
2019-05-19T11:30:27.143Z,22.38
2019-05-19T11:33:00.172Z,22.58
2019-05-19T11:35:34.863Z,22.60
2019-05-19T11:38:06.272Z,22.39
2019-05-19T11:40:40.967Z,22.88
2019-05-19T11:43:16.841Z,23.53
2019-05-19T11:45:50.370Z,23.68
2019-05-19T11:48:24.571Z,23.65
2019-05-19T11:50:57.679Z,23.67
2019-05-19T11:53:30.446Z,24.19
2019-05-19T11:56:06.717Z,23.94
2019-05-19T11:58:36.395Z,23.63
2019-05-19T12:01:10.644Z,23.53
2019-05-19T12:04:02.441Z,23.33
2019-05-19T12:07:09.771Z,23.60
2019-05-19T12:09:43.540Z,23.94
2019-05-19T12:12:17.239Z,22.95
2019-05-19T12:15:01.084Z,23.39
2019-05-19T12:17:42.860Z,23.13
2019-05-19T12:20:26.666Z,23.00
2019-05-19T12:23:12.907Z,22.82
2019-05-19T12:25:47.417Z,23.16
2019-05-19T12:28:35.343Z,23.29
2019-05-19T12:31:07.928Z,23.25
2019-05-19T12:33:52.400Z,23.86
2019-05-19T12:36:24.693Z,24.14
2019-05-19T12:38:57.763Z,24.10
2019-05-19T12:41:39.018Z,24.18
2019-05-19T12:44:13.920Z,23.99
2019-05-19T12:46:48.492Z,23.83
2019-05-19T12:49:20.332Z,23.91
2019-05-19T12:54:38.332Z,24.45
2019-05-19T12:57:12.622Z,24.39
2019-05-19T12:59:50.470Z,24.21
2019-05-19T13:02:23.226Z,24.35
2019-05-19T13:05:04.988Z,24.47
2019-05-19T13:07:32.056Z,24.27
2019-05-19T13:10:15.370Z,24.21
2019-05-19T13:12:49.613Z,24.30
2019-05-19T13:15:20.923Z,24.47
2019-05-19T13:17:56.664Z,24.37
2019-05-19T13:20:28.510Z,24.73
2019-05-19T13:23:00.728Z,24.73
2019-05-19T13:25:37.567Z,24.47
2019-05-19T13:28:09.808Z,24.30
2019-05-19T13:30:43.811Z,24.19
2019-05-19T13:33:15.360Z,24.79
2019-05-19T13:35:48.812Z,24.30
2019-05-19T13:38:23.482Z,24.24
2019-05-19T13:40:55.784Z,24.33
2019-05-19T13:43:30.900Z,24.32
2019-05-19T13:46:03.055Z,24.28
2019-05-19T13:48:36.846Z,23.67
2019-05-19T13:51:11.264Z,23.35
2019-05-19T13:53:43.936Z,23.29
2019-05-19T13:56:18.390Z,23.14
2019-05-19T13:58:52.121Z,23.11
2019-05-19T14:01:28.703Z,23.20
2019-05-19T14:04:05.123Z,23.22
2019-05-19T14:06:39.140Z,23.16
2019-05-19T14:09:15.300Z,23.36
2019-05-19T14:11:48.373Z,23.27
2019-05-19T14:14:22.553Z,23.29
2019-05-19T14:16:55.735Z,23.31
2019-05-19T14:19:31.047Z,23.16
2019-05-19T14:22:07.780Z,23.22
2019-05-19T14:24:41.965Z,24.04
2019-05-19T14:27:29.238Z,23.97
2019-05-19T14:29:52.815Z,24.19
2019-05-19T14:32:26.250Z,23.57
2019-05-19T14:35:17.166Z,23.49
2019-05-19T14:37:53.618Z,23.44
2019-05-19T14:40:25.123Z,23.38
2019-05-19T14:43:03.626Z,23.27
2019-05-19T14:45:35.661Z,23.59
2019-05-19T14:48:07.366Z,23.45
2019-05-19T14:50:39.214Z,23.41
2019-05-19T14:53:12.658Z,23.39
2019-05-19T14:55:47.162Z,23.10
2019-05-19T14:58:19.064Z,22.94
2019-05-19T15:00:54.218Z,23.32
2019-05-19T15:03:27.943Z,22.68
2019-05-19T15:06:01.324Z,21.96
2019-05-19T15:08:37.585Z,22.10
2019-05-19T15:11:13.332Z,22.08
2019-05-19T15:13:49.051Z,22.23
2019-05-19T15:16:23.066Z,21.74
2019-05-19T15:18:56.772Z,21.80
2019-05-19T15:21:31.947Z,21.40
2019-05-19T15:24:05.470Z,21.37
2019-05-19T15:26:40.787Z,21.37
2019-05-19T15:29:14.588Z,21.43
2019-05-19T15:31:46.309Z,21.53
2019-05-19T15:34:19.687Z,21.56
2019-05-19T15:36:56.752Z,21.49
2019-05-19T15:39:29.422Z,21.55
2019-05-19T15:42:03.496Z,21.19
2019-05-19T15:44:36.139Z,21.03
2019-05-19T15:47:11.306Z,20.78
2019-05-19T15:49:43.374Z,20.89
2019-05-19T15:52:15.389Z,20.96
2019-05-19T15:54:47.589Z,21.13
2019-05-19T15:57:18.902Z,21.21
2019-05-19T15:59:52.333Z,21.08
2019-05-19T16:02:25.490Z,21.40
2019-05-19T16:05:01.033Z,21.16
2019-05-19T16:07:35.623Z,21.20
2019-05-19T16:10:18.025Z,21.18
2019-05-19T16:12:50.748Z,20.93
2019-05-19T16:15:23.510Z,20.90
2019-05-19T16:17:56.792Z,20.75
2019-05-19T16:20:33.059Z,20.54
2019-05-19T16:23:05.956Z,20.71
2019-05-19T16:25:39.857Z,20.87
2019-05-19T16:28:12.373Z,20.64
2019-05-19T16:30:45.669Z,21.22
2019-05-19T16:33:18.811Z,21.16
2019-05-19T16:35:53.790Z,21.11
2019-05-19T16:38:26.111Z,21.23
2019-05-19T16:40:57.606Z,21.27
2019-05-19T16:43:29.929Z,21.34
2019-05-19T16:46:04.299Z,21.24
2019-05-19T16:48:39.878Z,21.22
2019-05-19T16:51:15.159Z,21.14
2019-05-19T16:53:49.956Z,20.32
2019-05-19T16:56:23.766Z,21.13
2019-05-19T16:58:56.931Z,21.16
2019-05-19T17:01:31.339Z,21.19
2019-05-19T17:04:02.674Z,21.08
2019-05-19T17:06:37.913Z,20.82
2019-05-19T17:09:10.017Z,21.00
2019-05-19T17:11:44.297Z,20.93
2019-05-19T17:14:17.970Z,21.11
2019-05-19T17:16:52.869Z,21.00
2019-05-19T17:19:25.856Z,20.90
2019-05-19T17:22:00.688Z,21.12
2019-05-19T17:24:36.478Z,20.94
2019-05-19T17:27:12.323Z,20.94
2019-05-19T17:29:46.637Z,20.81
2019-05-19T17:32:22.866Z,20.80
2019-05-19T17:34:57.179Z,20.63
2019-05-19T17:37:31.086Z,20.91
2019-05-19T17:40:17.034Z,20.96
2019-05-19T17:42:50.310Z,20.99
2019-05-19T17:45:25.965Z,21.10
2019-05-19T17:48:10.141Z,21.09
2019-05-19T17:50:40.180Z,21.22
2019-05-19T17:53:13.662Z,21.02
2019-05-19T17:55:48.325Z,21.08
2019-05-19T17:58:24.109Z,21.15
2019-05-19T18:01:00.723Z,21.04
2019-05-19T18:03:36.454Z,21.09
2019-05-19T18:06:12.580Z,20.99
2019-05-19T18:08:46.749Z,20.41
2019-05-19T18:11:21.000Z,20.58
2019-05-19T18:13:54.007Z,20.50
2019-05-19T18:16:30.488Z,20.53
2019-05-19T18:19:05.656Z,20.43
2019-05-19T18:21:38.229Z,20.20
2019-05-19T18:24:11.594Z,20.21
2019-05-19T18:26:46.799Z,20.35
2019-05-19T18:29:31.047Z,20.33
2019-05-19T18:31:57.891Z,20.35
2019-05-19T18:34:32.179Z,20.36
2019-05-19T18:37:06.354Z,20.18
2019-05-19T18:39:39.705Z,20.20
2019-05-19T18:42:13.311Z,20.16
2019-05-19T18:44:47.211Z,20.09
2019-05-19T18:47:20.459Z,20.03
2019-05-19T18:49:55.299Z,19.93
2019-05-19T18:52:47.362Z,19.12
2019-05-19T18:55:19.990Z,19.84
2019-05-19T18:57:53.658Z,20.07
2019-05-19T19:00:37.449Z,20.01
2019-05-19T19:03:10.837Z,19.68
2019-05-19T19:05:42.638Z,19.54
2019-05-19T19:08:18.304Z,19.68
2019-05-19T19:10:51.309Z,19.86
2019-05-19T19:13:23.462Z,19.82
2019-05-19T19:15:55.727Z,20.15
2019-05-19T19:18:28.629Z,20.21
2019-05-19T19:21:03.633Z,20.29
2019-05-19T19:23:38.482Z,20.52
2019-05-19T19:26:22.036Z,20.83
2019-05-19T19:29:06.744Z,20.99
2019-05-19T19:31:48.069Z,21.11
2019-05-19T19:34:13.943Z,21.03
2019-05-19T19:36:48.197Z,20.86
2019-05-19T19:39:21.813Z,20.23
2019-05-19T19:41:55.057Z,20.72
2019-05-19T19:44:27.933Z,20.54
2019-05-19T19:46:59.510Z,20.16
2019-05-19T19:49:34.415Z,20.30
2019-05-19T19:52:07.016Z,20.12
2019-05-19T19:54:39.573Z,19.38
2019-05-19T19:57:13.823Z,19.07
2019-05-19T19:59:46.610Z,19.37
2019-05-19T20:02:18.127Z,19.84
2019-05-19T20:04:51.669Z,20.12
2019-05-19T20:07:25.119Z,19.99
2019-05-19T20:09:58.920Z,19.16
2019-05-19T20:12:43.612Z,18.92
2019-05-19T20:15:20.079Z,18.40
2019-05-19T20:17:52.023Z,18.12
2019-05-19T20:20:25.627Z,17.87
2019-05-19T20:22:58.881Z,17.58
2019-05-19T20:25:37.140Z,17.46
2019-05-19T20:28:09.906Z,17.54
2019-05-19T20:30:42.879Z,17.27
2019-05-19T20:33:18.660Z,17.62
2019-05-19T20:35:52.999Z,17.65
2019-05-19T20:38:27.333Z,17.76
2019-05-19T20:41:03.023Z,17.51
2019-05-19T20:43:38.256Z,17.68
2019-05-19T20:46:11.589Z,17.72
2019-05-19T20:48:47.016Z,17.83
2019-05-19T20:51:22.562Z,17.95
2019-05-19T20:53:54.797Z,18.29
2019-05-19T20:56:30.506Z,18.29
2019-05-19T20:59:02.320Z,18.07
2019-05-19T21:01:35.858Z,18.08
2019-05-19T21:04:07.278Z,17.94
2019-05-19T21:06:42.607Z,17.95
2019-05-19T21:09:17.172Z,18.26
2019-05-19T21:11:49.857Z,18.24
2019-05-19T21:14:23.826Z,18.63
2019-05-19T21:16:58.899Z,18.62
2019-05-19T21:19:32.200Z,18.61
2019-05-19T21:22:05.184Z,19.16
2019-05-19T21:24:37.943Z,18.89
2019-05-19T21:27:09.387Z,18.34
2019-05-19T21:29:44.286Z,18.93
2019-05-19T21:32:16.103Z,19.43
2019-05-19T21:34:52.147Z,19.79
2019-05-19T21:37:27.905Z,19.87
2019-05-19T21:40:01.937Z,18.78
2019-05-19T21:42:44.182Z,19.38
2019-05-19T21:45:17.441Z,19.54
2019-05-19T21:47:49.969Z,19.61
2019-05-19T21:50:23.997Z,19.79
2019-05-19T21:52:57.009Z,19.83
2019-05-19T21:55:30.878Z,19.67
2019-05-19T21:58:04.057Z,19.61
2019-05-19T22:00:39.755Z,19.69
2019-05-19T22:03:14.199Z,19.85
2019-05-19T22:05:53.436Z,20.02
2019-05-19T22:08:23.752Z,20.15
2019-05-19T22:10:56.209Z,20.13
2019-05-19T22:13:29.000Z,19.94
2019-05-19T22:16:12.285Z,19.57
2019-05-19T22:18:36.825Z,19.66
2019-05-19T22:21:11.996Z,19.30
2019-05-19T22:23:46.099Z,19.03
2019-05-19T22:26:19.701Z,19.14
2019-05-19T22:28:53.419Z,19.39
2019-05-19T22:31:36.182Z,19.63
2019-05-19T22:34:03.206Z,19.12
2019-05-19T22:36:36.588Z,19.13
2019-05-19T22:39:10.415Z,19.35
2019-05-19T22:41:42.018Z,19.50
2019-05-19T22:44:16.675Z,19.45
2019-05-19T22:46:49.787Z,19.63
2019-05-19T22:49:22.493Z,19.46
2019-05-19T22:51:54.532Z,19.95
2019-05-19T22:54:29.237Z,20.04
2019-05-19T22:57:01.818Z,20.09
2019-05-19T22:59:33.236Z,20.16
2019-05-19T23:02:09.189Z,20.19
2019-05-19T23:04:40.122Z,19.93
2019-05-19T23:07:14.402Z,19.24
2019-05-19T23:09:49.520Z,18.60
2019-05-19T23:12:21.210Z,18.80
2019-05-19T23:14:53.112Z,18.86
2019-05-19T23:17:27.396Z,18.99
2019-05-19T23:19:58.902Z,19.25
2019-05-19T23:22:31.390Z,18.25
2019-05-19T23:25:15.588Z,17.01
2019-05-19T23:27:47.807Z,16.58
2019-05-19T23:30:19.871Z,16.80
2019-05-19T23:32:53.624Z,16.71
2019-05-19T23:35:29.345Z,16.49
2019-05-19T23:38:03.718Z,16.35
2019-05-19T23:40:37.352Z,15.93
2019-05-19T23:43:10.826Z,15.93
2019-05-19T23:45:46.801Z,15.98
2019-05-19T23:48:19.577Z,15.92
2019-05-19T23:50:52.558Z,15.95
2019-05-19T23:53:24.751Z,15.91
2019-05-19T23:55:58.599Z,15.97
2019-05-19T23:58:31.861Z,16.26
